sensor_id;sensor_type;location;lat;lon;timestamp;pressure;altitude;pressure_sealevel;temperature;humidity
57248;BME280;55809;46.618;10.764;2023-07-24T00:01:09;93016.91;;;19.64;80.92
57248;BME280;55809;46.618;10.764;2023-07-24T00:03:36;93002.66;;;19.48;81.07
57248;BME280;55809;46.618;10.764;2023-07-24T00:06:03;93015.19;;;19.58;81.28
57248;BME280;55809;46.618;10.764;2023-07-24T00:08:30;93001.59;;;19.54;81.27
57248;BME280;55809;46.618;10.764;2023-07-24T00:10:59;92993.88;;;19.53;81.92
57248;BME280;55809;46.618;10.764;2023-07-24T00:13:28;92997.97;;;19.57;81.73
57248;BME280;55809;46.618;10.764;2023-07-24T00:15:56;93009.56;;;19.71;82.35
57248;BME280;55809;46.618;10.764;2023-07-24T00:18:23;93011.88;;;19.72;82.27
57248;BME280;55809;46.618;10.764;2023-07-24T00:20:50;93024.06;;;19.71;82.96
57248;BME280;55809;46.618;10.764;2023-07-24T00:23:17;93009.72;;;19.67;83.32
57248;BME280;55809;46.618;10.764;2023-07-24T00:25:44;93007.75;;;19.67;83.18
57248;BME280;55809;46.618;10.764;2023-07-24T00:28:12;93002.09;;;19.62;83.13
57248;BME280;55809;46.618;10.764;2023-07-24T00:30:39;93014.28;;;19.70;83.67
57248;BME280;55809;46.618;10.764;2023-07-24T00:33:07;93018.56;;;19.71;82.35
57248;BME280;55809;46.618;10.764;2023-07-24T00:35:34;93014.28;;;19.70;81.61
57248;BME280;55809;46.618;10.764;2023-07-24T00:38:01;93010.19;;;19.65;80.51
57248;BME280;55809;46.618;10.764;2023-07-24T00:40:28;93002.25;;;19.58;79.53
57248;BME280;55809;46.618;10.764;2023-07-24T00:42:55;93010.91;;;19.57;79.91
57248;BME280;55809;46.618;10.764;2023-07-24T00:45:24;93010.91;;;19.57;80.29
57248;BME280;55809;46.618;10.764;2023-07-24T00:47:51;93008.63;;;19.55;80.42
57248;BME280;55809;46.618;10.764;2023-07-24T00:50:18;93004.22;;;19.58;80.27
57248;BME280;55809;46.618;10.764;2023-07-24T00:52:46;92984.56;;;19.41;80.26
57248;BME280;55809;46.618;10.764;2023-07-24T00:55:14;93005.13;;;19.55;79.34
57248;BME280;55809;46.618;10.764;2023-07-24T00:57:42;93004.81;;;19.53;79.00
57248;BME280;55809;46.618;10.764;2023-07-24T01:00:11;93001.75;;;19.51;79.31
57248;BME280;55809;46.618;10.764;2023-07-24T01:02:40;93001.16;;;19.47;79.11
57248;BME280;55809;46.618;10.764;2023-07-24T01:05:07;93004.34;;;19.45;78.89
57248;BME280;55809;46.618;10.764;2023-07-24T01:07:35;92991.84;;;19.35;79.05
57248;BME280;55809;46.618;10.764;2023-07-24T01:10:02;92997.47;;;19.40;78.11
57248;BME280;55809;46.618;10.764;2023-07-24T01:12:35;92973.59;;;19.32;78.67
57248;BME280;55809;46.618;10.764;2023-07-24T01:15:07;92985.94;;;19.45;79.22
57248;BME280;55809;46.618;10.764;2023-07-24T01:17:42;92984.44;;;19.54;79.49
57248;BME280;55809;46.618;10.764;2023-07-24T01:20:13;92985.06;;;19.58;80.36
57248;BME280;55809;46.618;10.764;2023-07-24T01:22:52;92967.84;;;19.57;80.61
57248;BME280;55809;46.618;10.764;2023-07-24T01:25:27;92971.38;;;19.58;80.05
57248;BME280;55809;46.618;10.764;2023-07-24T01:27:58;92974.72;;;19.62;80.40
57248;BME280;55809;46.618;10.764;2023-07-24T01:30:25;92978.22;;;19.62;80.18
57248;BME280;55809;46.618;10.764;2023-07-24T01:32:52;92966.34;;;19.56;80.58
57248;BME280;55809;46.618;10.764;2023-07-24T01:35:19;92935.72;;;19.30;80.63
57248;BME280;55809;46.618;10.764;2023-07-24T01:37:48;92966.63;;;19.49;79.86
57248;BME280;55809;46.618;10.764;2023-07-24T01:40:15;92961.31;;;19.45;78.94
57248;BME280;55809;46.618;10.764;2023-07-24T01:42:43;92949.25;;;19.34;79.13
57248;BME280;55809;46.618;10.764;2023-07-24T01:45:11;92952.31;;;19.36;79.27
57248;BME280;55809;46.618;10.764;2023-07-24T01:47:38;92959.03;;;19.35;79.56
57248;BME280;55809;46.618;10.764;2023-07-24T01:50:06;92955.19;;;19.32;79.02
57248;BME280;55809;46.618;10.764;2023-07-24T01:52:33;92939.06;;;19.16;79.04
57248;BME280;55809;46.618;10.764;2023-07-24T01:55:01;92947.88;;;19.20;78.81
57248;BME280;55809;46.618;10.764;2023-07-24T01:57:28;92958.09;;;19.29;78.79
57248;BME280;55809;46.618;10.764;2023-07-24T01:59:55;92962.34;;;19.30;78.93
57248;BME280;55809;46.618;10.764;2023-07-24T02:02:23;92948.34;;;19.28;78.90
57248;BME280;55809;46.618;10.764;2023-07-24T02:04:51;92954.75;;;19.34;78.85
57248;BME280;55809;46.618;10.764;2023-07-24T02:07:18;92950.94;;;19.31;78.29
57248;BME280;55809;46.618;10.764;2023-07-24T02:09:45;92950.94;;;19.31;77.97
57248;BME280;55809;46.618;10.764;2023-07-24T02:12:12;92904.84;;;19.02;77.73
57248;BME280;55809;46.618;10.764;2023-07-24T02:14:39;92942.25;;;19.24;78.09
57248;BME280;55809;46.618;10.764;2023-07-24T02:17:06;92945.31;;;19.26;78.39
57248;BME280;55809;46.618;10.764;2023-07-24T02:19:34;92938.19;;;19.28;78.90
57248;BME280;55809;46.618;10.764;2023-07-24T02:22:01;92891.16;;;19.02;79.19
57248;BME280;55809;46.618;10.764;2023-07-24T02:24:28;92936.66;;;19.36;79.72
57248;BME280;55809;46.618;10.764;2023-07-24T02:26:55;92940.63;;;19.35;79.83
57248;BME280;55809;46.618;10.764;2023-07-24T02:29:22;92938.31;;;19.34;79.71
57248;BME280;55809;46.618;10.764;2023-07-24T02:31:50;92929.50;;;19.30;79.89
57248;BME280;55809;46.618;10.764;2023-07-24T02:34:17;92936.63;;;19.27;81.17
57248;BME280;55809;46.618;10.764;2023-07-24T02:36:45;92925.22;;;19.19;81.14
57248;BME280;55809;46.618;10.764;2023-07-24T02:39:12;92934.34;;;19.16;81.58
57248;BME280;55809;46.618;10.764;2023-07-24T02:41:39;92929.47;;;19.20;81.75
57248;BME280;55809;46.618;10.764;2023-07-24T02:44:06;92928.56;;;19.24;81.45
57248;BME280;55809;46.618;10.764;2023-07-24T02:46:33;92927.34;;;19.25;82.20
57248;BME280;55809;46.618;10.764;2023-07-24T02:49:00;92911.09;;;19.12;81.91
57248;BME280;55809;46.618;10.764;2023-07-24T02:51:27;92922.34;;;19.23;82.46
57248;BME280;55809;46.618;10.764;2023-07-24T02:53:56;92926.28;;;19.31;82.61
57248;BME280;55809;46.618;10.764;2023-07-24T02:56:23;92926.56;;;19.15;83.33
57248;BME280;55809;46.618;10.764;2023-07-24T02:58:50;92924.75;;;19.03;84.44
57248;BME280;55809;46.618;10.764;2023-07-24T03:01:17;92918.16;;;18.91;84.91
57248;BME280;55809;46.618;10.764;2023-07-24T03:03:44;92915.88;;;18.89;84.92
57248;BME280;55809;46.618;10.764;2023-07-24T03:06:11;92921.97;;;18.93;85.40
57248;BME280;55809;46.618;10.764;2023-07-24T03:08:38;92920.47;;;19.02;85.13
57248;BME280;55809;46.618;10.764;2023-07-24T03:11:06;92932.81;;;19.06;85.24
57248;BME280;55809;46.618;10.764;2023-07-24T03:13:34;92920.94;;;19.09;84.27
57248;BME280;55809;46.618;10.764;2023-07-24T03:16:00;92920.19;;;19.09;83.10
57248;BME280;55809;46.618;10.764;2023-07-24T03:18:27;92930.81;;;19.07;82.64
57248;BME280;55809;46.618;10.764;2023-07-24T03:20:57;92923.38;;;19.07;82.55
57248;BME280;55809;46.618;10.764;2023-07-24T03:23:24;92916.06;;;19.04;82.89
57248;BME280;55809;46.618;10.764;2023-07-24T03:25:51;92908.63;;;19.05;82.56
57248;BME280;55809;46.618;10.764;2023-07-24T03:28:20;92919.88;;;19.07;84.11
57248;BME280;55809;46.618;10.764;2023-07-24T03:30:47;92910.31;;;19.02;84.24
57248;BME280;55809;46.618;10.764;2023-07-24T03:33:14;92886.09;;;18.91;83.56
57248;BME280;55809;46.618;10.764;2023-07-24T03:35:41;92910.44;;;19.08;84.36
57248;BME280;55809;46.618;10.764;2023-07-24T03:38:08;92915.31;;;19.04;84.57
57248;BME280;55809;46.618;10.764;2023-07-24T03:40:35;92921.09;;;19.06;84.49
57248;BME280;55809;46.618;10.764;2023-07-24T03:43:02;92925.81;;;19.05;85.17
57248;BME280;55809;46.618;10.764;2023-07-24T03:45:31;92932.81;;;19.06;85.29
57248;BME280;55809;46.618;10.764;2023-07-24T03:47:58;92928.41;;;19.09;86.23
57248;BME280;55809;46.618;10.764;2023-07-24T03:50:25;92926.72;;;19.11;86.63
57248;BME280;55809;46.618;10.764;2023-07-24T03:52:51;92928.84;;;19.07;85.56
57248;BME280;55809;46.618;10.764;2023-07-24T03:55:18;92927.47;;;19.03;86.02
57248;BME280;55809;46.618;10.764;2023-07-24T03:57:45;92932.19;;;19.02;86.33
57248;BME280;55809;46.618;10.764;2023-07-24T04:00:13;92931.72;;;19.04;86.57
57248;BME280;55809;46.618;10.764;2023-07-24T04:02:42;92938.28;;;19.06;86.88
57248;BME280;55809;46.618;10.764;2023-07-24T04:05:09;92923.34;;;18.98;87.06
57248;BME280;55809;46.618;10.764;2023-07-24T04:07:36;92932.47;;;19.04;86.82
57248;BME280;55809;46.618;10.764;2023-07-24T04:10:04;92931.09;;;19.00;86.97
57248;BME280;55809;46.618;10.764;2023-07-24T04:12:31;92925.03;;;19.05;86.81
57248;BME280;55809;46.618;10.764;2023-07-24T04:14:58;92899.63;;;18.95;86.82
57248;BME280;55809;46.618;10.764;2023-07-24T04:17:26;92902.56;;;19.10;87.07
57248;BME280;55809;46.618;10.764;2023-07-24T04:19:54;92916.09;;;19.13;86.92
57248;BME280;55809;46.618;10.764;2023-07-24T04:22:21;92911.69;;;19.16;87.48
57248;BME280;55809;46.618;10.764;2023-07-24T04:24:48;92922.50;;;19.19;87.84
57248;BME280;55809;46.618;10.764;2023-07-24T04:27:15;92918.69;;;19.26;87.56
57248;BME280;55809;46.618;10.764;2023-07-24T04:29:42;92912.31;;;19.29;86.59
57248;BME280;55809;46.618;10.764;2023-07-24T04:32:09;92921.75;;;19.28;86.78
57248;BME280;55809;46.618;10.764;2023-07-24T04:34:36;92920.97;;;19.28;84.99
57248;BME280;55809;46.618;10.764;2023-07-24T04:37:04;92927.22;;;19.28;84.79
57248;BME280;55809;46.618;10.764;2023-07-24T04:39:31;92930.41;;;19.27;84.31
57248;BME280;55809;46.618;10.764;2023-07-24T04:41:58;92926.44;;;19.28;84.62
57248;BME280;55809;46.618;10.764;2023-07-24T04:44:26;92929.66;;;19.26;83.71
57248;BME280;55809;46.618;10.764;2023-07-24T04:46:52;92929.91;;;19.10;84.76
57248;BME280;55809;46.618;10.764;2023-07-24T04:49:22;92929.56;;;18.98;84.43
57248;BME280;55809;46.618;10.764;2023-07-24T04:51:51;92932.78;;;18.97;84.93
57248;BME280;55809;46.618;10.764;2023-07-24T04:54:22;92928.81;;;18.98;85.53
57248;BME280;55809;46.618;10.764;2023-07-24T04:56:50;92921.53;;;19.04;85.95
57248;BME280;55809;46.618;10.764;2023-07-24T04:59:17;92908.03;;;19.10;86.56
57248;BME280;55809;46.618;10.764;2023-07-24T05:01:44;92908.63;;;19.14;87.04
57248;BME280;55809;46.618;10.764;2023-07-24T05:04:14;92913.22;;;19.17;86.25
57248;BME280;55809;46.618;10.764;2023-07-24T05:06:41;92898.47;;;19.24;86.34
57248;BME280;55809;46.618;10.764;2023-07-24T05:09:08;92902.72;;;19.25;85.17
57248;BME280;55809;46.618;10.764;2023-07-24T05:11:37;92907.75;;;19.26;84.81
57248;BME280;55809;46.618;10.764;2023-07-24T05:14:04;92911.25;;;19.27;84.65
57248;BME280;55809;46.618;10.764;2023-07-24T05:16:34;92911.41;;;19.32;83.07
57248;BME280;55809;46.618;10.764;2023-07-24T05:19:04;92908.22;;;19.34;83.28
57248;BME280;55809;46.618;10.764;2023-07-24T05:21:36;92915.22;;;19.35;83.33
57248;BME280;55809;46.618;10.764;2023-07-24T05:24:03;92894.84;;;19.36;83.81
57248;BME280;55809;46.618;10.764;2023-07-24T05:26:30;92879.31;;;19.33;85.20
57248;BME280;55809;46.618;10.764;2023-07-24T05:28:59;92895.75;;;19.42;84.63
57248;BME280;55809;46.618;10.764;2023-07-24T05:31:26;92900.31;;;19.36;84.39
57248;BME280;55809;46.618;10.764;2023-07-24T05:33:53;92894.25;;;19.32;85.23
57248;BME280;55809;46.618;10.764;2023-07-24T05:36:20;92887.25;;;19.40;85.31
57248;BME280;55809;46.618;10.764;2023-07-24T05:38:47;92877.22;;;19.46;84.85
57248;BME280;55809;46.618;10.764;2023-07-24T05:41:15;92874.31;;;19.50;84.80
57248;BME280;55809;46.618;10.764;2023-07-24T05:43:45;92875.38;;;19.61;85.14
57248;BME280;55809;46.618;10.764;2023-07-24T05:46:14;92879.03;;;19.77;82.22
57248;BME280;55809;46.618;10.764;2023-07-24T05:48:44;92881.31;;;19.87;80.77
57248;BME280;55809;46.618;10.764;2023-07-24T05:51:13;92862.75;;;19.91;80.63
57248;BME280;55809;46.618;10.764;2023-07-24T05:53:43;92867.31;;;19.85;82.09
57248;BME280;55809;46.618;10.764;2023-07-24T05:56:11;92835.50;;;19.51;83.01
57248;BME280;55809;46.618;10.764;2023-07-24T05:58:40;92833.41;;;19.37;83.84
57248;BME280;55809;46.618;10.764;2023-07-24T06:01:07;92868.25;;;19.45;84.82
57248;BME280;55809;46.618;10.764;2023-07-24T06:03:50;92875.97;;;19.47;85.42
57248;BME280;55809;46.618;10.764;2023-07-24T06:06:19;92844.22;;;19.22;85.96
57248;BME280;55809;46.618;10.764;2023-07-24T06:08:48;92874.00;;;19.29;87.69
57248;BME280;55809;46.618;10.764;2023-07-24T06:11:19;92833.84;;;18.89;88.25
57248;BME280;55809;46.618;10.764;2023-07-24T06:13:50;92892.22;;;19.14;87.35
57248;BME280;55809;46.618;10.764;2023-07-24T06:16:17;92887.22;;;19.21;87.06
57248;BME280;55809;46.618;10.764;2023-07-24T06:18:52;92880.81;;;19.25;86.13
57248;BME280;55809;46.618;10.764;2023-07-24T06:21:20;92890.88;;;19.28;86.15
57248;BME280;55809;46.618;10.764;2023-07-24T06:23:48;92882.06;;;19.24;90.93
57248;BME280;55809;46.618;10.764;2023-07-24T06:26:17;92883.88;;;19.17;91.12
57248;BME280;55809;46.618;10.764;2023-07-24T06:28:44;92876.88;;;19.16;90.90
57248;BME280;55809;46.618;10.764;2023-07-24T06:31:12;92889.66;;;19.19;90.56
57248;BME280;55809;46.618;10.764;2023-07-24T06:33:40;92907.28;;;19.28;88.69
57248;BME280;55809;46.618;10.764;2023-07-24T06:36:10;92921.28;;;19.30;88.98
57248;BME280;55809;46.618;10.764;2023-07-24T06:38:37;92935.56;;;19.25;89.19
57248;BME280;55809;46.618;10.764;2023-07-24T06:41:08;92916.25;;;19.10;88.64
57248;BME280;55809;46.618;10.764;2023-07-24T06:43:35;92949.25;;;19.25;88.26
57248;BME280;55809;46.618;10.764;2023-07-24T06:46:04;92951.38;;;19.20;88.26
57248;BME280;55809;46.618;10.764;2023-07-24T06:48:32;92950.88;;;19.04;87.84
57248;BME280;55809;46.618;10.764;2023-07-24T06:51:03;93017.78;;;19.21;88.10
57248;BME280;55809;46.618;10.764;2023-07-24T06:53:33;93073.13;;;19.16;88.86
57248;BME280;55809;46.618;10.764;2023-07-24T06:56:01;93080.97;;;19.05;90.21
57248;BME280;55809;46.618;10.764;2023-07-24T06:58:30;92986.25;;;18.89;92.68
57248;BME280;55809;46.618;10.764;2023-07-24T07:00:59;92877.19;;;18.28;94.87
57248;BME280;55809;46.618;10.764;2023-07-24T07:03:29;92890.44;;;18.39;96.80
57248;BME280;55809;46.618;10.764;2023-07-24T07:05:59;92876.53;;;18.46;95.10
57248;BME280;55809;46.618;10.764;2023-07-24T07:08:29;92889.81;;;18.66;91.76
57248;BME280;55809;46.618;10.764;2023-07-24T07:11:04;92898.06;;;18.44;94.66
57248;BME280;55809;46.618;10.764;2023-07-24T07:13:32;92935.91;;;18.55;97.22
57248;BME280;55809;46.618;10.764;2023-07-24T07:16:00;92925.53;;;18.41;97.67
57248;BME280;55809;46.618;10.764;2023-07-24T07:18:27;92921.44;;;18.45;96.09
57248;BME280;55809;46.618;10.764;2023-07-24T07:20:56;92930.19;;;18.62;96.26
57248;BME280;55809;46.618;10.764;2023-07-24T07:23:31;92932.09;;;18.74;95.50
57248;BME280;55809;46.618;10.764;2023-07-24T07:26:02;92942.47;;;18.89;94.08
57248;BME280;55809;46.618;10.764;2023-07-24T07:28:29;92936.72;;;18.96;95.47
57248;BME280;55809;46.618;10.764;2023-07-24T07:30:59;92938.38;;;18.93;95.99
57248;BME280;55809;46.618;10.764;2023-07-24T07:33:29;92940.22;;;18.96;96.44
57248;BME280;55809;46.618;10.764;2023-07-24T07:36:00;92934.63;;;19.09;95.60
57248;BME280;55809;46.618;10.764;2023-07-24T07:38:29;92931.84;;;19.68;90.54
57248;BME280;55809;46.618;10.764;2023-07-24T07:41:04;92920.44;;;20.67;83.80
57248;BME280;55809;46.618;10.764;2023-07-24T07:43:32;92917.09;;;21.53;80.13
57248;BME280;55809;46.618;10.764;2023-07-24T07:46:00;92890.63;;;21.41;80.25
57248;BME280;55809;46.618;10.764;2023-07-24T07:48:30;92900.25;;;21.37;84.69
57248;BME280;55809;46.618;10.764;2023-07-24T07:50:59;92888.44;;;21.84;81.41
57248;BME280;55809;46.618;10.764;2023-07-24T07:53:27;92879.00;;;22.00;79.63
57248;BME280;55809;46.618;10.764;2023-07-24T07:56:02;92890.97;;;22.41;77.81
57248;BME280;55809;46.618;10.764;2023-07-24T07:58:34;92893.81;;;22.32;81.45
57248;BME280;55809;46.618;10.764;2023-07-24T08:01:03;92889.78;;;22.04;81.61
57248;BME280;55809;46.618;10.764;2023-07-24T08:03:32;92900.06;;;21.64;84.60
57248;BME280;55809;46.618;10.764;2023-07-24T08:06:00;92901.41;;;21.45;83.79
57248;BME280;55809;46.618;10.764;2023-07-24T08:08:27;92899.72;;;21.23;83.51
57248;BME280;55809;46.618;10.764;2023-07-24T08:10:57;92869.53;;;20.99;82.63
57248;BME280;55809;46.618;10.764;2023-07-24T08:13:28;92867.72;;;20.96;81.92
57248;BME280;55809;46.618;10.764;2023-07-24T08:15:58;92862.31;;;20.78;83.76
57248;BME280;55809;46.618;10.764;2023-07-24T08:18:30;92873.03;;;20.67;88.46
57248;BME280;55809;46.618;10.764;2023-07-24T08:21:05;92858.06;;;20.34;89.99
57248;BME280;55809;46.618;10.764;2023-07-24T08:23:32;92865.22;;;20.32;92.03
57248;BME280;55809;46.618;10.764;2023-07-24T08:26:00;92873.81;;;20.06;95.40
57248;BME280;55809;46.618;10.764;2023-07-24T08:28:29;92862.41;;;19.99;97.33
57248;BME280;55809;46.618;10.764;2023-07-24T08:31:00;92847.38;;;19.94;98.09
57248;BME280;55809;46.618;10.764;2023-07-24T08:33:28;92858.47;;;19.90;96.05
57248;BME280;55809;46.618;10.764;2023-07-24T08:36:00;92852.09;;;19.57;96.12
57248;BME280;55809;46.618;10.764;2023-07-24T08:38:30;92867.78;;;19.56;95.94
57248;BME280;55809;46.618;10.764;2023-07-24T08:41:04;92912.50;;;19.81;97.29
57248;BME280;55809;46.618;10.764;2023-07-24T08:43:36;92899.44;;;19.94;97.29
57248;BME280;55809;46.618;10.764;2023-07-24T08:46:05;92895.44;;;20.04;96.92
57248;BME280;55809;46.618;10.764;2023-07-24T08:48:36;92896.66;;;20.03;99.86
57248;BME280;55809;46.618;10.764;2023-07-24T08:51:06;92898.63;;;19.94;95.06
57248;BME280;55809;46.618;10.764;2023-07-24T08:53:36;92892.13;;;19.73;99.74
57248;BME280;55809;46.618;10.764;2023-07-24T08:56:07;92890.31;;;19.70;98.66
57248;BME280;55809;46.618;10.764;2023-07-24T08:58:47;92902.16;;;19.66;99.49
57248;BME280;55809;46.618;10.764;2023-07-24T09:01:21;92903.69;;;19.67;100.00
57248;BME280;55809;46.618;10.764;2023-07-24T09:03:50;92933.81;;;19.77;97.84
57248;BME280;55809;46.618;10.764;2023-07-24T09:06:17;92935.94;;;19.73;98.77
57248;BME280;55809;46.618;10.764;2023-07-24T09:08:45;92934.41;;;19.81;98.69
57248;BME280;55809;46.618;10.764;2023-07-24T09:11:15;92918.59;;;19.76;98.88
57248;BME280;55809;46.618;10.764;2023-07-24T09:13:48;92920.00;;;19.71;97.89
57248;BME280;55809;46.618;10.764;2023-07-24T09:16:24;92918.00;;;19.72;98.79
57248;BME280;55809;46.618;10.764;2023-07-24T09:18:54;92903.56;;;19.71;98.40
57248;BME280;55809;46.618;10.764;2023-07-24T09:21:30;92913.13;;;19.76;97.27
57248;BME280;55809;46.618;10.764;2023-07-24T09:24:10;92904.91;;;19.85;97.38
57248;BME280;55809;46.618;10.764;2023-07-24T09:26:47;92883.75;;;19.95;99.48
57248;BME280;55809;46.618;10.764;2023-07-24T09:29:17;92889.06;;;19.89;100.00
57248;BME280;55809;46.618;10.764;2023-07-24T09:31:45;92900.63;;;19.84;99.24
57248;BME280;55809;46.618;10.764;2023-07-24T09:34:17;92909.94;;;19.68;100.00
57248;BME280;55809;46.618;10.764;2023-07-24T09:36:45;92882.09;;;19.70;100.00
57248;BME280;55809;46.618;10.764;2023-07-24T09:39:12;92835.84;;;19.53;100.00
57248;BME280;55809;46.618;10.764;2023-07-24T09:41:40;92855.47;;;19.52;100.00
57248;BME280;55809;46.618;10.764;2023-07-24T09:44:07;92820.47;;;19.01;100.00
57248;BME280;55809;46.618;10.764;2023-07-24T09:46:52;92822.41;;;18.82;100.00
57248;BME280;55809;46.618;10.764;2023-07-24T09:49:20;92835.38;;;19.00;100.00
57248;BME280;55809;46.618;10.764;2023-07-24T09:51:53;92778.50;;;18.85;100.00
57248;BME280;55809;46.618;10.764;2023-07-24T09:54:27;92699.78;;;18.43;100.00
57248;BME280;55809;46.618;10.764;2023-07-24T09:56:58;92679.25;;;18.20;100.00
57248;BME280;55809;46.618;10.764;2023-07-24T09:59:27;92717.69;;;18.35;100.00
57248;BME280;55809;46.618;10.764;2023-07-24T10:01:57;92704.78;;;18.36;100.00
57248;BME280;55809;46.618;10.764;2023-07-24T10:04:29;92683.69;;;18.36;100.00
57248;BME280;55809;46.618;10.764;2023-07-24T10:06:57;92702.41;;;18.84;100.00
57248;BME280;55809;46.618;10.764;2023-07-24T10:09:25;92721.19;;;19.28;100.00
57248;BME280;55809;46.618;10.764;2023-07-24T10:11:52;92718.03;;;19.81;95.63
57248;BME280;55809;46.618;10.764;2023-07-24T10:14:21;92721.66;;;20.20;98.50
57248;BME280;55809;46.618;10.764;2023-07-24T10:16:50;92732.31;;;20.60;97.23
57248;BME280;55809;46.618;10.764;2023-07-24T10:19:23;92718.19;;;20.92;95.60
57248;BME280;55809;46.618;10.764;2023-07-24T10:21:52;92697.09;;;20.83;95.32
57248;BME280;55809;46.618;10.764;2023-07-24T10:24:20;92699.03;;;20.68;92.64
57248;BME280;55809;46.618;10.764;2023-07-24T10:26:57;92717.59;;;20.39;93.09
57248;BME280;55809;46.618;10.764;2023-07-24T10:29:24;92733.88;;;20.43;93.83
57248;BME280;55809;46.618;10.764;2023-07-24T10:31:56;92746.72;;;20.37;91.51
57248;BME280;55809;46.618;10.764;2023-07-24T10:34:35;92759.81;;;20.33;92.41
57248;BME280;55809;46.618;10.764;2023-07-24T10:37:07;92784.22;;;20.31;92.78
57248;BME280;55809;46.618;10.764;2023-07-24T10:39:40;92810.97;;;20.36;90.69
57248;BME280;55809;46.618;10.764;2023-07-24T10:42:08;92812.53;;;20.37;93.52
57248;BME280;55809;46.618;10.764;2023-07-24T10:44:36;92818.44;;;20.35;93.37
57248;BME280;55809;46.618;10.764;2023-07-24T10:47:04;92837.09;;;20.22;94.78
57248;BME280;55809;46.618;10.764;2023-07-24T10:49:33;92862.25;;;20.11;96.14
57248;BME280;55809;46.618;10.764;2023-07-24T10:52:01;92875.34;;;20.07;97.39
57248;BME280;55809;46.618;10.764;2023-07-24T10:54:28;92866.34;;;20.07;96.90
57248;BME280;55809;46.618;10.764;2023-07-24T10:56:58;92828.97;;;19.95;97.74
57248;BME280;55809;46.618;10.764;2023-07-24T10:59:36;92814.34;;;19.88;95.33
57248;BME280;55809;46.618;10.764;2023-07-24T11:02:04;92795.97;;;19.61;97.65
57248;BME280;55809;46.618;10.764;2023-07-24T11:04:33;92782.19;;;19.28;98.25
57248;BME280;55809;46.618;10.764;2023-07-24T11:07:01;92816.38;;;19.42;99.75
57248;BME280;55809;46.618;10.764;2023-07-24T11:09:35;92832.50;;;19.49;98.33
57248;BME280;55809;46.618;10.764;2023-07-24T11:12:10;92834.47;;;19.58;97.15
57248;BME280;55809;46.618;10.764;2023-07-24T11:14:46;92796.75;;;19.43;97.94
57248;BME280;55809;46.618;10.764;2023-07-24T11:17:13;92804.19;;;19.61;100.00
57248;BME280;55809;46.618;10.764;2023-07-24T11:19:42;92730.31;;;19.34;100.00
57248;BME280;55809;46.618;10.764;2023-07-24T11:22:09;92726.97;;;19.30;100.00
57248;BME280;55809;46.618;10.764;2023-07-24T11:24:46;92759.75;;;19.57;100.00
57248;BME280;55809;46.618;10.764;2023-07-24T11:27:14;92722.44;;;19.27;100.00
57248;BME280;55809;46.618;10.764;2023-07-24T11:29:42;92735.44;;;19.50;100.00
57248;BME280;55809;46.618;10.764;2023-07-24T11:32:09;92727.56;;;19.43;100.00
57248;BME280;55809;46.618;10.764;2023-07-24T11:34:36;92726.00;;;19.51;100.00
57248;BME280;55809;46.618;10.764;2023-07-24T11:37:06;92731.94;;;19.68;100.00
57248;BME280;55809;46.618;10.764;2023-07-24T11:39:33;92744.47;;;19.93;100.00
57248;BME280;55809;46.618;10.764;2023-07-24T11:42:01;92735.00;;;20.03;100.00
57248;BME280;55809;46.618;10.764;2023-07-24T11:44:28;92713.22;;;20.09;99.76
57248;BME280;55809;46.618;10.764;2023-07-24T11:47:00;92683.06;;;20.09;100.00
57248;BME280;55809;46.618;10.764;2023-07-24T11:49:28;92674.06;;;20.18;100.00
57248;BME280;55809;46.618;10.764;2023-07-24T11:52:02;92683.47;;;20.17;100.00
57248;BME280;55809;46.618;10.764;2023-07-24T11:54:35;92670.22;;;20.24;100.00
57248;BME280;55809;46.618;10.764;2023-07-24T11:57:14;92663.97;;;20.24;99.76
57248;BME280;55809;46.618;10.764;2023-07-24T11:59:42;92653.81;;;20.15;99.33
57248;BME280;55809;46.618;10.764;2023-07-24T12:02:10;92660.22;;;20.12;100.00
57248;BME280;55809;46.618;10.764;2023-07-24T12:04:38;92625.88;;;19.78;100.00
57248;BME280;55809;46.618;10.764;2023-07-24T12:07:07;92692.75;;;19.95;100.00
57248;BME280;55809;46.618;10.764;2023-07-24T12:09:36;92694.28;;;19.87;99.43
57248;BME280;55809;46.618;10.764;2023-07-24T12:12:04;92672.00;;;19.70;99.63
57248;BME280;55809;46.618;10.764;2023-07-24T12:14:31;92689.16;;;19.80;100.00
57248;BME280;55809;46.618;10.764;2023-07-24T12:17:01;92663.19;;;19.66;100.00
57248;BME280;55809;46.618;10.764;2023-07-24T12:19:28;92676.13;;;19.65;100.00
57248;BME280;55809;46.618;10.764;2023-07-24T12:21:56;92683.59;;;19.56;100.00
57248;BME280;55809;46.618;10.764;2023-07-24T12:24:23;92687.25;;;19.53;100.00
57248;BME280;55809;46.618;10.764;2023-07-24T12:26:52;92683.59;;;19.56;100.00
57248;BME280;55809;46.618;10.764;2023-07-24T12:29:19;92699.53;;;19.57;100.00
57248;BME280;55809;46.618;10.764;2023-07-24T12:31:46;92707.16;;;19.53;100.00
57248;BME280;55809;46.618;10.764;2023-07-24T12:34:13;92741.25;;;19.52;100.00
57248;BME280;55809;46.618;10.764;2023-07-24T12:36:41;92766.47;;;19.56;100.00
57248;BME280;55809;46.618;10.764;2023-07-24T12:39:10;92778.66;;;19.64;100.00
57248;BME280;55809;46.618;10.764;2023-07-24T12:41:37;92776.63;;;19.74;97.26
57248;BME280;55809;46.618;10.764;2023-07-24T12:44:08;92778.63;;;19.74;97.88
57248;BME280;55809;46.618;10.764;2023-07-24T12:46:35;92786.56;;;19.72;98.33
57248;BME280;55809;46.618;10.764;2023-07-24T12:49:04;92753.06;;;19.67;100.00
57248;BME280;55809;46.618;10.764;2023-07-24T12:51:32;92740.91;;;19.78;100.00
57248;BME280;55809;46.618;10.764;2023-07-24T12:54:00;92748.97;;;19.63;100.00
57248;BME280;55809;46.618;10.764;2023-07-24T12:56:28;92765.72;;;19.47;100.00